Terminal Aerodrome Forecast
Issued by NWS

Home | Current Version | Previous Version | Graphics & Text | Print | Product List | Glossary Off
Versions: 1 2 3 4 5 6 7 8 9 10 11 12 13 14 15 16 17 18 19 20 21

000
FTUS42 KMHX 300500
TAFPGV
TAF
KPGV 300537Z 3006/0106 35004KT 5SM BR SCT005 BKN070
     FM300800 00000KT 1SM BR BKN003
      TEMPO 3009/3012 1/2SM FG
     FM301400 02005KT P6SM SCT050 SCT100
     FM301800 04005KT P6SM SCT050
      AMD LTD TO CLD VIS AND WIND=

USA.gov is the U.S. government's official web portal to all federal, state and local government web resources and services.